Time;durP1;ratioP1;P1;durP2;ratioP2;P2;SDS_P1;SDS_P2;PMS_P1;PMS_P2;Temp;Humidity;BMP_temperature;BMP_pressure;BME280_temperature;BME280_humidity;BME280_pressure;Samples;Min_cycle;Max_cycle;Signal;HPM_P1;HPM_P2
2024/01/13 00:01:52;;;;;;;27.95;17.25;;;;;;;;;;5093444;28;20191;-67
2024/01/13 00:04:20;;;;;;;28.40;15.63;;;;;;;;;;5093085;28;20251;-67
2024/01/13 00:06:48;;;;;;;28.33;15.65;;;;;;;;;;5094256;28;20195;-67
2024/01/13 00:09:17;;;;;;;26.13;16.60;;;;;;;;;;5076075;28;20203;-68
2024/01/13 00:11:45;;;;;;;23.83;15.70;;;;;;;;;;5075904;28;20215;-68
2024/01/13 00:14:15;;;;;;;29.30;16.58;;;;;;;;;;5059236;28;20195;-67
2024/01/13 00:16:43;;;;;;;25.70;14.60;;;;;;;;;;5094776;28;20207;-67
2024/01/13 00:19:11;;;;;;;32.08;17.05;;;;;;;;;;5091163;28;20203;-68
2024/01/13 00:21:39;;;;;;;26.80;15.45;;;;;;;;;;5090954;28;20202;-67
2024/01/13 00:24:08;;;;;;;22.60;14.75;;;;;;;;;;5092248;28;20187;-68
2024/01/13 00:26:36;;;;;;;26.25;16.73;;;;;;;;;;5056682;28;20670;-68
2024/01/13 00:29:05;;;;;;;24.45;15.50;;;;;;;;;;5092055;28;20199;-68
2024/01/13 00:31:34;;;;;;;23.92;15.60;;;;;;;;;;5090254;28;20208;-66
2024/01/13 00:34:03;;;;;;;25.48;15.20;;;;;;;;;;5091703;28;20252;-66
2024/01/13 00:36:31;;;;;;;25.00;14.70;;;;;;;;;;5073760;28;20203;-66
2024/01/13 00:38:59;;;;;;;27.50;15.35;;;;;;;;;;5091237;28;20203;-67
2024/01/13 00:41:27;;;;;;;25.40;14.80;;;;;;;;;;5091621;28;20253;-67
2024/01/13 00:43:56;;;;;;;28.35;16.25;;;;;;;;;;5071405;28;20196;-66
2024/01/13 00:46:24;;;;;;;32.00;17.88;;;;;;;;;;5091694;28;20195;-67
2024/01/13 00:48:54;;;;;;;30.55;17.27;;;;;;;;;;5091196;28;20196;-67
2024/01/13 00:51:22;;;;;;;28.33;16.55;;;;;;;;;;5090023;28;20199;-67
2024/01/13 00:53:50;;;;;;;32.30;16.08;;;;;;;;;;5072327;28;20203;-68
2024/01/13 00:56:18;;;;;;;25.48;16.73;;;;;;;;;;5092287;28;20264;-67
2024/01/13 00:58:46;;;;;;;28.70;17.60;;;;;;;;;;5073284;28;20553;-67
2024/01/13 01:01:15;;;;;;;25.27;14.85;;;;;;;;;;5091059;28;20211;-68
2024/01/13 01:03:43;;;;;;;26.77;15.52;;;;;;;;;;5071848;28;20631;-68
2024/01/13 01:06:12;;;;;;;30.00;15.63;;;;;;;;;;5090913;28;20610;-68
2024/01/13 01:08:41;;;;;;;31.15;16.65;;;;;;;;;;5090060;28;20201;-68
2024/01/13 01:11:09;;;;;;;27.08;15.55;;;;;;;;;;5090919;28;20187;-67
2024/01/13 01:13:37;;;;;;;26.08;16.15;;;;;;;;;;5090230;28;20215;-66
2024/01/13 01:16:06;;;;;;;25.33;16.20;;;;;;;;;;5094059;28;20566;-68
2024/01/13 01:18:34;;;;;;;29.75;15.60;;;;;;;;;;5095250;28;20244;-68
2024/01/13 01:21:03;;;;;;;28.25;16.90;;;;;;;;;;5095379;28;20209;-68
2024/01/13 01:23:32;;;;;;;26.13;15.23;;;;;;;;;;5094451;28;20205;-67
2024/01/13 01:26:01;;;;;;;26.98;15.85;;;;;;;;;;5095239;28;20229;-68
2024/01/13 01:28:29;;;;;;;25.17;15.35;;;;;;;;;;5094878;28;20201;-68
2024/01/13 01:30:57;;;;;;;27.95;15.85;;;;;;;;;;5094929;28;20207;-68
2024/01/13 01:33:26;;;;;;;25.42;15.45;;;;;;;;;;5094704;28;20592;-67
2024/01/13 01:35:54;;;;;;;30.13;15.88;;;;;;;;;;5076648;28;20203;-68
2024/01/13 01:38:23;;;;;;;26.17;16.00;;;;;;;;;;5093693;28;20672;-69
2024/01/13 01:40:54;;;;;;;29.42;17.27;;;;;;;;;;5093260;28;20231;-68
2024/01/13 01:43:22;;;;;;;31.33;18.30;;;;;;;;;;5093983;28;20248;-69
2024/01/13 01:45:52;;;;;;;29.92;15.60;;;;;;;;;;5086549;28;20229;-69
2024/01/13 01:48:22;;;;;;;31.58;17.35;;;;;;;;;;5094373;28;20205;-68
2024/01/13 01:50:50;;;;;;;27.88;17.80;;;;;;;;;;5094657;28;20264;-68
2024/01/13 01:53:18;;;;;;;33.60;16.98;;;;;;;;;;5092278;28;20223;-69
2024/01/13 01:55:47;;;;;;;32.05;18.38;;;;;;;;;;5094145;28;20207;-68
2024/01/13 01:58:17;;;;;;;36.92;17.73;;;;;;;;;;5076243;28;20194;-68
2024/01/13 02:00:45;;;;;;;36.88;17.27;;;;;;;;;;5092743;28;20188;-70
2024/01/13 02:03:14;;;;;;;31.25;17.70;;;;;;;;;;5091298;28;20206;-70
2024/01/13 02:05:42;;;;;;;32.22;16.23;;;;;;;;;;5091144;28;20196;-70
2024/01/13 02:08:10;;;;;;;33.03;18.05;;;;;;;;;;5091918;28;20211;-70
2024/01/13 02:10:38;;;;;;;29.60;17.70;;;;;;;;;;5091884;28;20265;-70
2024/01/13 02:13:07;;;;;;;27.90;16.83;;;;;;;;;;5092130;28;20215;-70
2024/01/13 02:15:36;;;;;;;34.70;18.08;;;;;;;;;;5091479;28;20653;-70
2024/01/13 02:18:05;;;;;;;32.92;18.98;;;;;;;;;;5091814;28;20207;-70
2024/01/13 02:20:33;;;;;;;30.60;17.70;;;;;;;;;;5091410;28;20280;-70
2024/01/13 02:23:02;;;;;;;31.85;17.17;;;;;;;;;;5091363;28;20657;-70
2024/01/13 02:25:31;;;;;;;31.75;18.08;;;;;;;;;;5091515;28;20218;-70
2024/01/13 02:27:59;;;;;;;34.10;18.48;;;;;;;;;;5091450;28;20202;-70
2024/01/13 02:30:27;;;;;;;34.42;19.20;;;;;;;;;;5090915;28;20211;-70
2024/01/13 02:32:55;;;;;;;39.90;18.23;;;;;;;;;;5091225;28;20272;-70
2024/01/13 02:35:23;;;;;;;38.08;19.92;;;;;;;;;;5091384;28;20203;-70
2024/01/13 02:37:52;;;;;;;34.20;19.73;;;;;;;;;;5090989;28;20652;-70
2024/01/13 02:40:21;;;;;;;37.10;19.38;;;;;;;;;;5090945;28;20215;-70
2024/01/13 02:42:49;;;;;;;33.00;18.65;;;;;;;;;;5073306;28;20650;-70
2024/01/13 02:45:18;;;;;;;34.53;19.55;;;;;;;;;;5084313;28;20253;-70
2024/01/13 02:47:50;;;;;;;36.03;18.80;;;;;;;;;;5090204;28;20195;-70
2024/01/13 02:50:19;;;;;;;36.10;20.40;;;;;;;;;;5051933;28;20210;-70
2024/01/13 02:52:47;;;;;;;37.42;19.55;;;;;;;;;;5072989;28;20221;-70
2024/01/13 02:55:15;;;;;;;38.45;20.20;;;;;;;;;;5089636;28;20757;-70
2024/01/13 02:57:45;;;;;;;45.28;22.63;;;;;;;;;;5074119;28;20203;-70
2024/01/13 03:00:14;;;;;;;43.13;21.63;;;;;;;;;;5090522;28;20547;-70
2024/01/13 03:02:42;;;;;;;42.42;22.67;;;;;;;;;;5089213;28;20196;-70
2024/01/13 03:05:10;;;;;;;42.38;20.90;;;;;;;;;;5071545;28;20199;-70
2024/01/13 03:07:38;;;;;;;41.22;21.15;;;;;;;;;;5090216;28;20199;-70
2024/01/13 03:10:08;;;;;;;49.47;22.02;;;;;;;;;;5072838;28;20209;-70
2024/01/13 03:12:37;;;;;;;45.53;21.63;;;;;;;;;;5073736;28;20207;-70
2024/01/13 03:15:07;;;;;;;44.25;22.13;;;;;;;;;;5089154;28;20213;-70
2024/01/13 03:17:35;;;;;;;40.92;21.40;;;;;;;;;;5080147;28;20215;-70
2024/01/13 03:20:04;;;;;;;43.45;20.95;;;;;;;;;;5090682;28;20199;-70
2024/01/13 03:22:32;;;;;;;47.35;21.27;;;;;;;;;;5092634;28;20563;-68
2024/01/13 03:25:00;;;;;;;48.72;21.80;;;;;;;;;;5075779;28;21553;-68
2024/01/13 03:27:29;;;;;;;44.63;21.13;;;;;;;;;;5091911;28;20218;-67
2024/01/13 03:29:57;;;;;;;47.70;21.63;;;;;;;;;;5084174;28;20801;-68
2024/01/13 03:32:26;;;;;;;57.28;22.27;;;;;;;;;;5092711;28;20240;-68
2024/01/13 03:34:55;;;;;;;42.05;22.23;;;;;;;;;;5074200;28;20199;-68
2024/01/13 03:37:23;;;;;;;48.88;23.17;;;;;;;;;;5092575;28;20584;-68
2024/01/13 03:39:51;;;;;;;54.45;23.90;;;;;;;;;;5091934;28;20203;-68
2024/01/13 03:42:19;;;;;;;56.85;24.63;;;;;;;;;;5084579;28;20192;-68
2024/01/13 03:44:47;;;;;;;48.65;23.73;;;;;;;;;;5088328;28;20236;-68
2024/01/13 03:47:16;;;;;;;45.85;21.10;;;;;;;;;;5073333;28;20207;-68
2024/01/13 03:49:45;;;;;;;59.25;23.13;;;;;;;;;;5092167;28;20204;-68
2024/01/13 03:52:15;;;;;;;46.95;20.38;;;;;;;;;;5092286;28;20222;-68
2024/01/13 03:54:43;;;;;;;58.63;24.15;;;;;;;;;;5092135;28;20221;-69
2024/01/13 03:57:11;;;;;;;71.80;23.90;;;;;;;;;;5092400;28;20203;-68
2024/01/13 03:59:39;;;;;;;59.97;25.05;;;;;;;;;;5091027;28;20203;-68
2024/01/13 04:02:08;;;;;;;67.75;26.27;;;;;;;;;;5091714;28;20203;-67
2024/01/13 04:04:36;;;;;;;58.50;26.95;;;;;;;;;;5073769;28;20702;-68
2024/01/13 04:07:05;;;;;;;61.80;26.65;;;;;;;;;;5075098;28;20209;-68
2024/01/13 04:09:34;;;;;;;60.90;29.73;;;;;;;;;;5096310;28;20199;-68
2024/01/13 04:12:02;;;;;;;61.72;26.73;;;;;;;;;;5095931;28;20651;-68
2024/01/13 04:14:31;;;;;;;71.88;28.40;;;;;;;;;;5095082;28;20207;-68
2024/01/13 04:16:59;;;;;;;81.85;28.70;;;;;;;;;;5095167;28;20658;-68
2024/01/13 04:19:27;;;;;;;55.42;24.40;;;;;;;;;;5096048;28;20200;-68
2024/01/13 04:21:55;;;;;;;55.22;25.35;;;;;;;;;;5095674;28;20259;-68
2024/01/13 04:24:25;;;;;;;55.53;26.60;;;;;;;;;;5096084;28;20217;-68
2024/01/13 04:26:53;;;;;;;59.83;25.77;;;;;;;;;;5095377;28;20646;-69
2024/01/13 04:29:21;;;;;;;59.58;25.70;;;;;;;;;;5095489;28;20662;-68
2024/01/13 04:31:50;;;;;;;61.10;26.92;;;;;;;;;;5077612;28;20203;-67
2024/01/13 04:34:18;;;;;;;63.20;25.75;;;;;;;;;;5094789;28;20229;-68
2024/01/13 04:36:46;;;;;;;57.35;23.23;;;;;;;;;;5096387;28;20203;-68
2024/01/13 04:39:15;;;;;;;58.35;24.27;;;;;;;;;;5095458;28;20200;-68
2024/01/13 04:41:44;;;;;;;71.45;26.08;;;;;;;;;;5095653;28;20790;-69
2024/01/13 04:44:13;;;;;;;60.15;25.50;;;;;;;;;;5094923;28;20766;-68
2024/01/13 04:46:41;;;;;;;71.95;24.63;;;;;;;;;;5095001;28;20199;-69
2024/01/13 04:49:09;;;;;;;60.78;24.42;;;;;;;;;;5095671;28;20213;-68
2024/01/13 04:51:38;;;;;;;72.13;26.23;;;;;;;;;;5095747;28;20210;-68
2024/01/13 04:54:06;;;;;;;69.55;28.00;;;;;;;;;;5076910;28;20211;-67
2024/01/13 04:56:34;;;;;;;67.80;26.90;;;;;;;;;;5079879;28;20204;-68
2024/01/13 04:59:04;;;;;;;71.57;30.30;;;;;;;;;;5095078;28;20217;-67
2024/01/13 05:01:32;;;;;;;68.80;27.45;;;;;;;;;;5094874;28;20229;-68
2024/01/13 05:04:00;;;;;;;74.80;29.52;;;;;;;;;;5094014;28;20196;-67
2024/01/13 05:06:29;;;;;;;78.80;29.25;;;;;;;;;;5095075;28;20681;-68
2024/01/13 05:08:57;;;;;;;71.28;27.40;;;;;;;;;;5094903;28;20214;-67
2024/01/13 05:11:25;;;;;;;84.13;26.75;;;;;;;;;;5095545;28;20725;-67
2024/01/13 05:13:52;;;;;;;85.38;30.15;;;;;;;;;;5076669;28;20215;-68
2024/01/13 05:16:22;;;;;;;66.57;29.02;;;;;;;;;;5094797;28;20202;-67
2024/01/13 05:18:50;;;;;;;74.50;29.55;;;;;;;;;;5094446;28;20261;-67
2024/01/13 05:21:18;;;;;;;82.30;30.63;;;;;;;;;;5095248;28;20541;-67
2024/01/13 05:23:46;;;;;;;72.65;29.67;;;;;;;;;;5094819;28;20526;-67
2024/01/13 05:26:15;;;;;;;88.72;30.38;;;;;;;;;;5094838;28;20211;-67
2024/01/13 05:28:43;;;;;;;83.20;29.88;;;;;;;;;;5093945;28;20205;-68
2024/01/13 05:31:11;;;;;;;82.32;29.05;;;;;;;;;;5075889;28;20211;-68
2024/01/13 05:33:41;;;;;;;85.78;30.23;;;;;;;;;;5094399;28;20219;-67
2024/01/13 05:36:09;;;;;;;96.38;32.35;;;;;;;;;;5094950;28;20202;-69
2024/01/13 05:38:37;;;;;;;81.30;30.55;;;;;;;;;;5093563;28;20220;-67
2024/01/13 05:41:06;;;;;;;88.93;28.77;;;;;;;;;;5094379;28;20231;-68
2024/01/13 05:43:34;;;;;;;86.63;29.45;;;;;;;;;;5094607;28;20199;-67
2024/01/13 05:46:02;;;;;;;91.85;31.33;;;;;;;;;;5094945;28;20219;-67
2024/01/13 05:48:32;;;;;;;83.93;28.38;;;;;;;;;;5093013;28;20203;-69
2024/01/13 05:51:02;;;;;;;87.53;30.98;;;;;;;;;;5095172;28;21044;-67
2024/01/13 05:53:30;;;;;;;71.05;28.70;;;;;;;;;;5094114;28;20213;-68
2024/01/13 05:55:58;;;;;;;83.15;29.05;;;;;;;;;;5076865;28;20210;-67
2024/01/13 05:58:26;;;;;;;67.78;26.20;;;;;;;;;;5075848;28;20191;-67
2024/01/13 06:00:55;;;;;;;84.57;29.05;;;;;;;;;;5094056;28;20195;-68
2024/01/13 06:03:23;;;;;;;78.57;27.98;;;;;;;;;;5093386;28;20199;-67
2024/01/13 06:05:51;;;;;;;81.65;28.70;;;;;;;;;;5075309;28;20288;-68
2024/01/13 06:08:21;;;;;;;77.13;28.60;;;;;;;;;;5094208;28;20202;-68
2024/01/13 06:10:49;;;;;;;80.10;28.60;;;;;;;;;;5094453;28;20221;-68
2024/01/13 06:13:18;;;;;;;79.70;28.17;;;;;;;;;;5094213;28;20203;-68
2024/01/13 06:15:48;;;;;;;88.78;29.92;;;;;;;;;;5094678;28;20844;-68
2024/01/13 06:18:16;;;;;;;86.53;28.50;;;;;;;;;;5093387;28;20202;-68
2024/01/13 06:20:45;;;;;;;68.53;27.35;;;;;;;;;;5075988;28;20253;-69
2024/01/13 06:23:13;;;;;;;78.85;27.55;;;;;;;;;;5075866;28;20199;-69
2024/01/13 06:25:43;;;;;;;79.25;27.73;;;;;;;;;;5093857;28;20203;-69
2024/01/13 06:28:11;;;;;;;73.95;27.10;;;;;;;;;;5093183;28;20191;-69
2024/01/13 06:30:39;;;;;;;81.78;29.33;;;;;;;;;;5075541;28;20214;-68
2024/01/13 06:33:07;;;;;;;72.22;26.30;;;;;;;;;;5075732;28;20200;-68
2024/01/13 06:35:36;;;;;;;73.28;27.00;;;;;;;;;;5094328;28;20219;-68
2024/01/13 06:38:04;;;;;;;71.35;26.60;;;;;;;;;;5092940;28;20207;-68
2024/01/13 06:40:32;;;;;;;71.50;26.15;;;;;;;;;;5093423;28;20305;-68
2024/01/13 06:43:02;;;;;;;74.85;26.75;;;;;;;;;;5093368;28;20207;-68
2024/01/13 06:45:30;;;;;;;86.03;27.80;;;;;;;;;;5074677;28;20223;-68
2024/01/13 06:47:58;;;;;;;75.00;26.92;;;;;;;;;;5093500;28;20213;-68
2024/01/13 06:50:26;;;;;;;74.43;28.20;;;;;;;;;;5092524;28;20225;-68
2024/01/13 06:52:55;;;;;;;82.65;27.55;;;;;;;;;;5092647;28;20206;-68
2024/01/13 06:55:24;;;;;;;63.78;26.33;;;;;;;;;;5092738;28;20227;-68
2024/01/13 06:57:53;;;;;;;73.57;27.33;;;;;;;;;;5074601;28;20191;-69
2024/01/13 07:00:22;;;;;;;71.63;26.92;;;;;;;;;;5093616;28;20206;-68
2024/01/13 07:02:50;;;;;;;70.28;25.52;;;;;;;;;;5092233;28;20219;-68
2024/01/13 07:05:19;;;;;;;64.70;24.70;;;;;;;;;;5091810;28;20209;-69
2024/01/13 07:07:47;;;;;;;61.50;23.75;;;;;;;;;;5092105;28;20206;-69
2024/01/13 07:10:15;;;;;;;65.10;24.63;;;;;;;;;;5091914;28;20207;-68
2024/01/13 07:12:43;;;;;;;53.70;24.67;;;;;;;;;;5080015;28;20208;-69
2024/01/13 07:15:12;;;;;;;60.97;23.48;;;;;;;;;;5092806;28;20237;-69
2024/01/13 07:17:41;;;;;;;60.92;23.80;;;;;;;;;;5093275;28;20199;-68
2024/01/13 07:20:10;;;;;;;61.08;24.35;;;;;;;;;;5093076;28;20211;-68
2024/01/13 07:22:38;;;;;;;63.88;25.73;;;;;;;;;;5092506;28;20221;-68
2024/01/13 07:25:06;;;;;;;65.25;25.67;;;;;;;;;;5092753;28;20209;-68
2024/01/13 07:27:44;;;;;;;56.20;24.58;;;;;;;;;;5092786;28;20222;-69
2024/01/13 07:30:12;;;;;;;62.85;25.60;;;;;;;;;;5091897;28;20195;-68
2024/01/13 07:32:45;;;;;;;56.03;25.17;;;;;;;;;;5092017;28;20207;-68
2024/01/13 07:35:13;;;;;;;63.08;23.45;;;;;;;;;;5090525;28;20207;-68
2024/01/13 07:37:43;;;;;;;52.55;21.08;;;;;;;;;;5092478;28;20210;-69
2024/01/13 07:40:12;;;;;;;46.78;20.85;;;;;;;;;;5070324;28;20243;-69
2024/01/13 07:42:40;;;;;;;48.42;23.05;;;;;;;;;;5069419;28;20208;-68
2024/01/13 07:45:09;;;;;;;53.45;22.15;;;;;;;;;;5071743;28;20220;-68
2024/01/13 07:47:37;;;;;;;52.80;23.42;;;;;;;;;;5070355;28;20220;-68
2024/01/13 07:50:07;;;;;;;46.42;21.23;;;;;;;;;;5069263;28;20211;-68
2024/01/13 07:52:35;;;;;;;52.55;23.65;;;;;;;;;;5076107;28;20214;-68
2024/01/13 07:55:04;;;;;;;55.50;22.98;;;;;;;;;;5063180;28;20216;-69
2024/01/13 07:57:32;;;;;;;50.95;21.00;;;;;;;;;;5065727;28;20200;-69
2024/01/13 08:00:01;;;;;;;41.08;19.92;;;;;;;;;;5056491;28;20331;-68
2024/01/13 08:02:29;;;;;;;52.72;24.35;;;;;;;;;;5056764;28;20205;-68
2024/01/13 08:04:57;;;;;;;51.08;22.55;;;;;;;;;;5059436;28;20199;-68
2024/01/13 08:07:27;;;;;;;49.92;22.80;;;;;;;;;;5068191;28;20233;-68
2024/01/13 08:09:55;;;;;;;48.42;23.38;;;;;;;;;;5075447;28;20203;-67
2024/01/13 08:12:23;;;;;;;56.00;23.20;;;;;;;;;;5073913;28;20560;-68
2024/01/13 08:14:51;;;;;;;52.22;23.35;;;;;;;;;;5074199;28;20553;-68
2024/01/13 08:17:20;;;;;;;46.67;23.08;;;;;;;;;;5074230;28;20545;-67
2024/01/13 08:19:48;;;;;;;55.65;23.80;;;;;;;;;;5074705;28;20203;-68
2024/01/13 08:22:17;;;;;;;50.38;22.83;;;;;;;;;;5074043;28;20202;-68
2024/01/13 08:24:46;;;;;;;56.65;24.45;;;;;;;;;;5074183;28;20623;-68
2024/01/13 08:27:14;;;;;;;46.33;23.67;;;;;;;;;;5074750;28;20833;-68
2024/01/13 08:29:43;;;;;;;46.75;25.60;;;;;;;;;;5073177;28;20200;-68
2024/01/13 08:32:11;;;;;;;48.65;24.73;;;;;;;;;;5075534;28;20208;-70
2024/01/13 08:34:39;;;;;;;43.58;23.27;;;;;;;;;;5069258;28;20197;-70
2024/01/13 08:37:07;;;;;;;43.17;21.23;;;;;;;;;;5066961;28;20226;-70
2024/01/13 08:39:36;;;;;;;44.15;21.77;;;;;;;;;;5068168;28;20652;-70
2024/01/13 08:42:06;;;;;;;44.03;20.75;;;;;;;;;;5087790;28;20585;-71
2024/01/13 08:44:34;;;;;;;38.70;20.77;;;;;;;;;;5092052;28;20697;-69
2024/01/13 08:47:02;;;;;;;41.20;20.92;;;;;;;;;;5075752;28;20203;-69
2024/01/13 08:49:31;;;;;;;44.00;20.90;;;;;;;;;;5088990;28;20199;-70
2024/01/13 08:51:59;;;;;;;44.90;19.50;;;;;;;;;;5092531;28;20494;-70
2024/01/13 08:54:27;;;;;;;41.72;21.08;;;;;;;;;;5091741;28;20191;-70
2024/01/13 08:56:55;;;;;;;38.92;20.20;;;;;;;;;;5075106;28;20212;-70
2024/01/13 08:59:25;;;;;;;34.65;17.90;;;;;;;;;;5089866;28;20206;-70
2024/01/13 09:01:53;;;;;;;32.55;16.20;;;;;;;;;;5092193;28;20217;-69
2024/01/13 09:04:22;;;;;;;26.35;13.10;;;;;;;;;;5088769;28;20207;-69
2024/01/13 09:06:50;;;;;;;31.27;15.60;;;;;;;;;;5088141;28;20195;-70
2024/01/13 09:09:18;;;;;;;20.67;13.38;;;;;;;;;;5091290;28;20283;-70
2024/01/13 09:11:47;;;;;;;28.95;14.60;;;;;;;;;;5092587;28;20203;-70
2024/01/13 09:14:16;;;;;;;27.75;15.02;;;;;;;;;;5092200;28;20209;-70
2024/01/13 09:16:46;;;;;;;25.80;14.50;;;;;;;;;;5093277;28;20229;-70
2024/01/13 09:19:16;;;;;;;26.33;14.13;;;;;;;;;;5092068;28;20652;-70
2024/01/13 09:21:48;;;;;;;30.83;14.63;;;;;;;;;;5092998;28;20198;-70
2024/01/13 09:24:16;;;;;;;27.83;14.32;;;;;;;;;;5092010;28;20248;-70
2024/01/13 09:26:46;;;;;;;19.63;12.63;;;;;;;;;;5092476;28;20654;-70
2024/01/13 09:29:14;;;;;;;24.48;13.32;;;;;;;;;;5091004;28;20642;-70
2024/01/13 09:31:42;;;;;;;24.83;11.90;;;;;;;;;;5091770;28;20202;-70
2024/01/13 09:34:12;;;;;;;16.88;10.50;;;;;;;;;;5073595;28;20203;-70
2024/01/13 09:36:41;;;;;;;17.65;9.98;;;;;;;;;;5090943;28;20283;-71
2024/01/13 09:39:10;;;;;;;16.35;9.55;;;;;;;;;;5091655;28;20203;-70
2024/01/13 09:41:39;;;;;;;12.40;7.20;;;;;;;;;;5091555;28;20715;-70
2024/01/13 09:44:09;;;;;;;11.90;8.00;;;;;;;;;;5087958;28;20272;-70
2024/01/13 09:46:38;;;;;;;16.33;9.02;;;;;;;;;;5086450;28;20192;-70
2024/01/13 09:49:12;;;;;;;15.60;9.63;;;;;;;;;;5045252;28;20195;-70
2024/01/13 09:51:41;;;;;;;18.38;9.63;;;;;;;;;;5092844;28;20195;-69
2024/01/13 09:54:10;;;;;;;14.07;8.63;;;;;;;;;;5092322;28;20199;-70
2024/01/13 09:56:44;;;;;;;14.50;8.68;;;;;;;;;;5089342;28;20219;-69
2024/01/13 09:59:12;;;;;;;17.05;10.00;;;;;;;;;;5057214;28;20198;-70
2024/01/13 10:01:41;;;;;;;13.00;8.60;;;;;;;;;;5091672;28;20662;-70
2024/01/13 10:04:10;;;;;;;13.82;8.32;;;;;;;;;;5087593;28;20202;-70
2024/01/13 10:06:38;;;;;;;14.45;9.15;;;;;;;;;;5091828;28;20194;-69
2024/01/13 10:09:08;;;;;;;14.63;8.10;;;;;;;;;;5092136;28;20202;-70
2024/01/13 10:11:36;;;;;;;11.15;6.82;;;;;;;;;;5092291;28;20649;-69
2024/01/13 10:14:05;;;;;;;9.77;7.45;;;;;;;;;;5092229;28;20199;-70
2024/01/13 10:16:34;;;;;;;9.60;6.90;;;;;;;;;;5091072;28;20226;-70
2024/01/13 10:19:03;;;;;;;11.88;7.90;;;;;;;;;;5092072;28;20196;-70
2024/01/13 10:21:31;;;;;;;12.40;6.35;;;;;;;;;;5091791;28;20259;-70
2024/01/13 10:24:00;;;;;;;12.02;5.70;;;;;;;;;;5092078;28;20202;-69
2024/01/13 10:26:31;;;;;;;10.57;6.35;;;;;;;;;;5091701;28;20556;-69
2024/01/13 10:29:00;;;;;;;8.77;6.28;;;;;;;;;;5091917;28;20183;-69
2024/01/13 10:31:30;;;;;;;9.90;6.13;;;;;;;;;;5091297;28;20199;-69
2024/01/13 10:33:58;;;;;;;7.65;5.40;;;;;;;;;;5091859;28;20224;-69
2024/01/13 10:36:27;;;;;;;10.88;7.35;;;;;;;;;;5091179;28;20211;-68
2024/01/13 10:38:57;;;;;;;10.63;7.65;;;;;;;;;;5091134;28;20200;-69
2024/01/13 10:41:30;;;;;;;9.07;6.82;;;;;;;;;;5090881;28;20257;-68
2024/01/13 10:44:03;;;;;;;8.95;6.30;;;;;;;;;;5086275;28;20680;-69
2024/01/13 10:46:33;;;;;;;9.65;6.57;;;;;;;;;;5083295;28;20183;-69
2024/01/13 10:49:04;;;;;;;12.68;6.75;;;;;;;;;;5091776;28;20565;-68
2024/01/13 10:51:34;;;;;;;12.80;8.00;;;;;;;;;;5068898;28;20198;-68
2024/01/13 10:54:03;;;;;;;15.95;9.43;;;;;;;;;;5091943;28;20198;-68
2024/01/13 10:56:31;;;;;;;13.60;8.63;;;;;;;;;;5074640;28;20287;-68
2024/01/13 10:59:01;;;;;;;17.92;10.13;;;;;;;;;;5091034;28;20191;-68
2024/01/13 11:01:29;;;;;;;16.58;9.82;;;;;;;;;;5090272;28;20203;-68
2024/01/13 11:03:58;;;;;;;19.80;11.75;;;;;;;;;;5089706;28;20191;-68
2024/01/13 11:06:28;;;;;;;20.77;10.38;;;;;;;;;;5071561;28;20183;-68
2024/01/13 11:08:56;;;;;;;12.98;8.40;;;;;;;;;;5091161;28;20206;-68
2024/01/13 11:11:26;;;;;;;15.82;10.25;;;;;;;;;;5090534;28;20645;-68
2024/01/13 11:13:57;;;;;;;18.67;9.82;;;;;;;;;;5091106;28;20199;-68
2024/01/13 11:16:28;;;;;;;14.30;9.65;;;;;;;;;;5090107;28;20203;-68
2024/01/13 11:18:59;;;;;;;17.95;10.20;;;;;;;;;;5091348;28;20187;-69
2024/01/13 11:21:33;;;;;;;17.83;11.05;;;;;;;;;;5089553;28;20191;-68
2024/01/13 11:24:07;;;;;;;16.92;10.80;;;;;;;;;;5089970;28;20209;-68
2024/01/13 11:26:38;;;;;;;16.17;10.32;;;;;;;;;;5088820;28;20202;-68
2024/01/13 11:29:16;;;;;;;20.50;12.13;;;;;;;;;;5089818;28;20248;-68
2024/01/13 11:31:46;;;;;;;24.90;13.88;;;;;;;;;;5088665;28;20232;-69
2024/01/13 11:34:16;;;;;;;27.10;14.27;;;;;;;;;;5072199;28;20265;-68
2024/01/13 11:36:47;;;;;;;27.90;14.63;;;;;;;;;;5089067;28;20211;-69
2024/01/13 11:39:16;;;;;;;29.67;15.60;;;;;;;;;;5090067;28;20199;-69
2024/01/13 11:41:46;;;;;;;26.95;14.30;;;;;;;;;;5085034;28;20740;-73
2024/01/13 11:44:19;;;;;;;28.40;15.00;;;;;;;;;;5087526;28;20291;-68
2024/01/13 11:46:59;;;;;;;30.48;14.23;;;;;;;;;;5085781;28;20337;-68
2024/01/13 11:49:30;;;;;;;33.15;17.40;;;;;;;;;;5084468;28;20202;-68
2024/01/13 11:51:59;;;;;;;33.47;15.95;;;;;;;;;;5088737;28;20260;-68
2024/01/13 11:54:28;;;;;;;26.25;14.55;;;;;;;;;;5090027;28;20561;-68
2024/01/13 11:56:58;;;;;;;33.83;15.50;;;;;;;;;;5090891;28;20221;-69
2024/01/13 11:59:26;;;;;;;30.45;15.10;;;;;;;;;;5075612;28;20211;-69
2024/01/13 12:01:55;;;;;;;35.20;20.15;;;;;;;;;;5089923;28;20272;-69
2024/01/13 12:04:27;;;;;;;30.50;14.30;;;;;;;;;;5089488;28;20260;-69
2024/01/13 12:06:55;;;;;;;30.23;14.60;;;;;;;;;;5089843;28;20257;-68
2024/01/13 12:09:24;;;;;;;26.20;12.70;;;;;;;;;;5090570;28;20260;-68
2024/01/13 12:11:54;;;;;;;29.33;13.90;;;;;;;;;;5072503;28;20580;-69
2024/01/13 12:14:26;;;;;;;26.30;14.48;;;;;;;;;;5073022;28;20195;-69
2024/01/13 12:16:55;;;;;;;25.17;14.93;;;;;;;;;;5089849;28;20211;-68
2024/01/13 12:19:27;;;;;;;27.13;14.27;;;;;;;;;;5090475;28;20195;-68
2024/01/13 12:21:56;;;;;;;20.17;11.00;;;;;;;;;;5070109;28;20191;-69
2024/01/13 12:24:28;;;;;;;27.80;12.38;;;;;;;;;;5090504;28;20191;-69
2024/01/13 12:26:57;;;;;;;28.63;12.70;;;;;;;;;;5090086;28;20188;-69
2024/01/13 12:29:29;;;;;;;23.17;11.55;;;;;;;;;;5094100;28;20198;-68
2024/01/13 12:31:58;;;;;;;26.70;13.40;;;;;;;;;;5093652;28;20198;-69
2024/01/13 12:34:27;;;;;;;31.77;10.90;;;;;;;;;;5075580;28;20196;-69
2024/01/13 12:36:57;;;;;;;25.98;11.70;;;;;;;;;;5092230;28;20676;-69
2024/01/13 12:39:26;;;;;;;23.88;10.95;;;;;;;;;;5093002;28;20264;-68
2024/01/13 12:41:54;;;;;;;18.80;10.48;;;;;;;;;;5094086;28;20249;-69
2024/01/13 12:44:24;;;;;;;25.05;12.15;;;;;;;;;;5086947;28;20216;-69
2024/01/13 12:46:55;;;;;;;24.02;11.05;;;;;;;;;;5090376;28;20202;-69
2024/01/13 12:49:24;;;;;;;20.27;11.38;;;;;;;;;;5093473;28;20197;-70
2024/01/13 12:51:53;;;;;;;22.90;11.38;;;;;;;;;;5076004;28;20710;-69
2024/01/13 12:54:23;;;;;;;22.40;11.27;;;;;;;;;;5093451;28;20199;-68
2024/01/13 12:56:52;;;;;;;25.70;11.73;;;;;;;;;;5093768;28;20594;-70
2024/01/13 12:59:20;;;;;;;25.17;11.85;;;;;;;;;;5074678;28;20203;-69
2024/01/13 13:01:48;;;;;;;25.10;11.52;;;;;;;;;;5093734;28;20208;-69
2024/01/13 13:04:17;;;;;;;22.65;11.00;;;;;;;;;;5092344;28;20200;-69
2024/01/13 13:06:45;;;;;;;24.98;11.88;;;;;;;;;;5093053;28;20207;-69
2024/01/13 13:09:14;;;;;;;23.60;11.82;;;;;;;;;;5092904;28;20196;-69
2024/01/13 13:11:43;;;;;;;20.92;10.30;;;;;;;;;;5093247;28;20579;-69
2024/01/13 13:14:11;;;;;;;22.85;10.77;;;;;;;;;;5086577;28;20207;-69
2024/01/13 13:16:40;;;;;;;25.15;10.55;;;;;;;;;;5093604;28;20192;-69
2024/01/13 13:19:08;;;;;;;24.73;12.25;;;;;;;;;;5092353;28;20215;-69
2024/01/13 13:21:36;;;;;;;17.55;9.80;;;;;;;;;;5084447;28;20199;-68
2024/01/13 13:24:05;;;;;;;23.45;11.32;;;;;;;;;;5054384;28;20626;-69
2024/01/13 13:26:35;;;;;;;24.13;10.75;;;;;;;;;;5080408;28;20833;-69
2024/01/13 13:29:04;;;;;;;26.70;12.93;;;;;;;;;;5091256;28;20203;-69
2024/01/13 13:31:33;;;;;;;25.90;13.90;;;;;;;;;;5092984;28;20582;-68
2024/01/13 13:34:01;;;;;;;23.20;11.00;;;;;;;;;;5072136;28;20215;-69
2024/01/13 13:36:29;;;;;;;27.80;12.90;;;;;;;;;;5072727;28;20207;-69
2024/01/13 13:38:57;;;;;;;25.95;12.68;;;;;;;;;;5086522;28;20221;-69
2024/01/13 13:41:26;;;;;;;33.45;13.35;;;;;;;;;;5092873;28;20641;-69
2024/01/13 13:43:54;;;;;;;31.05;13.45;;;;;;;;;;5091527;28;20199;-69
2024/01/13 13:46:24;;;;;;;23.73;10.95;;;;;;;;;;5093242;28;20212;-69
2024/01/13 13:48:52;;;;;;;30.60;13.15;;;;;;;;;;5074063;28;20199;-69
2024/01/13 13:51:20;;;;;;;33.78;13.35;;;;;;;;;;5085259;28;20208;-69
2024/01/13 13:53:48;;;;;;;30.73;14.25;;;;;;;;;;5085614;28;20204;-70
2024/01/13 13:56:17;;;;;;;22.92;11.25;;;;;;;;;;5061666;28;20207;-69
2024/01/13 13:58:45;;;;;;;29.63;12.40;;;;;;;;;;5073516;28;20211;-67
2024/01/13 14:01:13;;;;;;;28.13;13.10;;;;;;;;;;5092362;28;20215;-68
2024/01/13 14:03:42;;;;;;;31.48;13.75;;;;;;;;;;5078813;28;20444;-69
2024/01/13 14:06:11;;;;;;;30.00;13.60;;;;;;;;;;5070241;28;20214;-70
2024/01/13 14:08:40;;;;;;;31.27;13.27;;;;;;;;;;5086642;28;20199;-68
2024/01/13 14:11:08;;;;;;;25.25;13.05;;;;;;;;;;5072160;28;20203;-68
2024/01/13 14:13:36;;;;;;;25.30;11.50;;;;;;;;;;5088350;28;20191;-68
2024/01/13 14:16:05;;;;;;;28.85;13.35;;;;;;;;;;5074032;28;20209;-68
2024/01/13 14:18:34;;;;;;;24.58;11.90;;;;;;;;;;5089451;28;20219;-68
2024/01/13 14:21:04;;;;;;;30.38;13.27;;;;;;;;;;5090834;28;20213;-68
2024/01/13 14:23:32;;;;;;;25.85;11.75;;;;;;;;;;5085547;28;20585;-68
2024/01/13 14:26:00;;;;;;;28.65;14.63;;;;;;;;;;5091311;28;20208;-68
2024/01/13 14:28:28;;;;;;;23.88;12.45;;;;;;;;;;5091119;28;20191;-68